createdAt,value
2023-05-15T01:07:59.636Z,36.61
2023-05-15T01:10:31.004Z,37.16
2023-05-15T01:13:01.812Z,36.55
2023-05-15T01:15:32.392Z,37.03
2023-05-15T01:18:03.016Z,36.68
2023-05-15T01:20:46.934Z,37.00
2023-05-15T01:23:49.208Z,37.02
2023-05-15T01:26:57.832Z,36.97
2023-05-15T01:29:31.200Z,37.25
2023-05-15T01:32:08.769Z,37.22
2023-05-15T01:35:02.351Z,36.68
2023-05-15T01:37:36.154Z,37.30
2023-05-15T01:40:09.667Z,37.02
2023-05-15T01:42:44.699Z,37.01
2023-05-15T01:45:34.377Z,37.14
2023-05-15T01:48:09.198Z,37.29
2023-05-15T01:50:43.026Z,37.02
2023-05-15T01:53:14.661Z,37.37
2023-05-15T01:55:45.761Z,37.37
2023-05-15T01:58:17.572Z,36.93
2023-05-15T02:00:49.973Z,36.79
2023-05-15T02:03:21.795Z,37.14
2023-05-15T02:05:54.800Z,37.59
2023-05-15T02:08:27.252Z,37.67
2023-05-15T02:10:58.072Z,37.15
2023-05-15T02:13:29.603Z,38.27
2023-05-15T02:16:00.271Z,37.78
2023-05-15T02:18:30.821Z,37.83
2023-05-15T02:21:02.677Z,38.10
2023-05-15T02:23:33.114Z,37.96
2023-05-15T02:26:03.531Z,36.58
2023-05-15T02:28:41.016Z,37.29
2023-05-15T02:31:23.757Z,36.91
2023-05-15T02:34:28.671Z,37.79
2023-05-15T02:37:02.709Z,37.47
2023-05-15T02:39:35.535Z,37.04
2023-05-15T02:42:07.647Z,37.24
2023-05-15T02:44:39.567Z,37.02
2023-05-15T02:47:10.447Z,37.06
2023-05-15T02:49:42.632Z,36.97
2023-05-15T02:52:12.943Z,37.01
2023-05-15T02:54:43.571Z,37.15
2023-05-15T02:57:13.969Z,37.13
2023-05-15T02:59:44.736Z,37.16
2023-05-15T03:02:15.180Z,37.67
2023-05-15T03:04:45.875Z,37.43
2023-05-15T03:07:16.912Z,37.27
2023-05-15T03:09:47.380Z,37.92
2023-05-15T03:12:18.682Z,36.69
2023-05-15T03:14:49.080Z,37.90
2023-05-15T03:17:19.706Z,38.08
2023-05-15T03:19:50.498Z,37.64
2023-05-15T03:22:21.071Z,38.09
2023-05-15T03:24:51.529Z,37.81
2023-05-15T03:27:22.532Z,37.97
2023-05-15T03:29:52.929Z,37.44
2023-05-15T03:32:23.636Z,38.18
2023-05-15T03:34:54.050Z,38.11
2023-05-15T03:37:24.474Z,37.95
2023-05-15T03:39:54.874Z,38.24
2023-05-15T03:42:26.429Z,37.59
2023-05-15T03:44:57.857Z,38.33
2023-05-15T03:47:28.326Z,37.46
2023-05-15T03:49:58.919Z,38.12
2023-05-15T03:52:29.511Z,37.98
2023-05-15T03:54:59.933Z,38.15
2023-05-15T03:57:30.534Z,37.75
2023-05-15T04:00:01.448Z,37.44
2023-05-15T04:02:42.749Z,38.47
2023-05-15T04:05:13.274Z,38.58
2023-05-15T04:07:43.708Z,38.15
2023-05-15T04:10:14.156Z,37.55
2023-05-15T04:12:44.546Z,38.19
2023-05-15T04:15:20.319Z,38.39
2023-05-15T04:17:53.283Z,37.08
2023-05-15T04:20:25.949Z,38.29
2023-05-15T04:22:56.412Z,38.18
2023-05-15T04:25:27.841Z,37.89
2023-05-15T04:27:58.425Z,37.76
2023-05-15T04:30:29.064Z,38.28
2023-05-15T04:32:59.685Z,37.56
2023-05-15T04:35:30.599Z,37.56
2023-05-15T04:38:01.040Z,37.58
2023-05-15T04:40:31.721Z,37.27
2023-05-15T04:43:02.243Z,37.73
2023-05-15T04:45:32.647Z,37.67
2023-05-15T04:48:03.116Z,37.86
2023-05-15T04:50:33.530Z,38.26
2023-05-15T04:53:04.030Z,37.65
2023-05-15T04:55:34.511Z,36.93
2023-05-15T04:58:05.033Z,38.44
2023-05-15T05:00:35.465Z,37.32
2023-05-15T05:03:06.387Z,38.09
2023-05-15T05:05:36.799Z,37.76
2023-05-15T05:08:07.261Z,38.15
2023-05-15T05:10:37.652Z,37.68
2023-05-15T05:13:08.390Z,37.38
2023-05-15T05:15:39.320Z,38.79
2023-05-15T05:18:09.767Z,38.25
2023-05-15T05:20:40.143Z,37.18
2023-05-15T05:23:10.575Z,38.21
2023-05-15T05:25:40.968Z,37.48
2023-05-15T05:28:11.318Z,38.39
2023-05-15T05:30:42.087Z,38.24
2023-05-15T05:33:12.601Z,37.43
2023-05-15T05:35:43.151Z,38.05
2023-05-15T05:38:13.755Z,38.16
2023-05-15T05:40:44.725Z,38.61
2023-05-15T05:43:15.187Z,37.90
2023-05-15T05:45:45.684Z,37.84
2023-05-15T05:48:16.093Z,37.21
2023-05-15T05:50:46.460Z,38.15
2023-05-15T05:53:16.935Z,38.35
2023-05-15T05:55:47.599Z,38.34
2023-05-15T06:00:55.483Z,36.48
2023-05-15T06:03:27.504Z,38.74
2023-05-15T06:05:58.721Z,38.92
2023-05-15T06:08:30.875Z,38.16
2023-05-15T06:11:01.398Z,37.97
2023-05-15T06:13:32.148Z,37.87
2023-05-15T06:16:03.002Z,38.29
2023-05-15T06:18:33.378Z,38.64
2023-05-15T06:21:03.907Z,37.31
2023-05-15T06:23:34.489Z,38.27
2023-05-15T06:26:06.019Z,36.60
2023-05-15T06:28:36.457Z,37.41
2023-05-15T06:31:07.524Z,37.34
2023-05-15T06:33:37.888Z,37.82
2023-05-15T06:36:08.447Z,37.11
2023-05-15T06:38:38.834Z,37.15
2023-05-15T06:41:09.285Z,36.86
2023-05-15T06:43:39.661Z,36.71
2023-05-15T06:46:10.119Z,37.84
2023-05-15T06:48:40.654Z,38.82
2023-05-15T06:51:11.204Z,37.69
2023-05-15T06:53:42.924Z,37.20
2023-05-15T06:56:13.440Z,38.04
2023-05-15T06:58:43.974Z,37.27
2023-05-15T07:01:14.342Z,37.46
2023-05-15T07:03:44.753Z,37.35
2023-05-15T07:06:15.099Z,37.60
2023-05-15T07:08:45.726Z,37.35
2023-05-15T07:11:16.326Z,38.06
2023-05-15T07:13:47.229Z,37.81
2023-05-15T07:16:17.808Z,38.63
2023-05-15T07:18:48.444Z,36.41
2023-05-15T07:21:19.202Z,35.79
2023-05-15T07:23:49.574Z,36.12
2023-05-15T07:26:28.670Z,35.35
2023-05-15T07:29:03.108Z,35.49
2023-05-15T07:31:35.016Z,35.42
2023-05-15T07:34:05.558Z,35.76
2023-05-15T07:36:35.774Z,36.59
2023-05-15T07:39:06.192Z,36.61
2023-05-15T07:41:36.675Z,36.19
2023-05-15T07:44:07.632Z,37.38
2023-05-15T07:46:38.285Z,37.42
2023-05-15T07:49:08.698Z,37.15
2023-05-15T07:51:39.195Z,37.29
2023-05-15T07:54:09.568Z,37.04
2023-05-15T07:56:41.195Z,37.03
2023-05-15T07:59:11.551Z,37.48
2023-05-15T08:01:59.883Z,37.10
2023-05-15T08:04:30.378Z,37.26
2023-05-15T08:07:00.903Z,37.12
2023-05-15T08:09:31.376Z,37.41
2023-05-15T08:12:22.431Z,37.45
2023-05-15T08:15:11.196Z,36.74
2023-05-15T08:17:42.503Z,37.17
2023-05-15T08:20:13.411Z,37.22
2023-05-15T08:22:43.921Z,37.69
2023-05-15T08:25:14.575Z,37.02
2023-05-15T08:27:44.990Z,35.75
2023-05-15T08:30:15.930Z,36.70
2023-05-15T08:32:50.535Z,37.74
2023-05-15T08:35:20.981Z,37.37
2023-05-15T08:37:51.350Z,37.83
2023-05-15T08:40:34.428Z,36.03
2023-05-15T08:43:17.827Z,37.77
2023-05-15T08:45:48.269Z,36.60
2023-05-15T08:48:26.811Z,37.40
2023-05-15T08:50:59.438Z,37.68
2023-05-15T08:53:31.431Z,38.06
2023-05-15T08:56:02.430Z,38.04
2023-05-15T08:58:34.244Z,37.89
2023-05-15T09:01:05.212Z,37.82
2023-05-15T09:03:35.704Z,38.49
2023-05-15T09:06:08.118Z,38.06
2023-05-15T09:08:39.601Z,37.55
2023-05-15T09:11:10.601Z,38.44
2023-05-15T09:13:41.221Z,38.00
2023-05-15T09:16:11.693Z,37.61
2023-05-15T09:18:43.721Z,37.69
2023-05-15T09:21:30.910Z,38.12
2023-05-15T09:24:21.347Z,37.62
2023-05-15T09:27:05.093Z,38.21
2023-05-15T09:29:37.259Z,38.04
2023-05-15T09:32:10.683Z,38.22
2023-05-15T09:34:44.826Z,37.72
2023-05-15T09:37:33.932Z,38.11
2023-05-15T09:40:12.781Z,37.96
2023-05-15T09:42:43.025Z,38.32
2023-05-15T09:45:20.388Z,37.49
2023-05-15T09:47:50.933Z,38.01
2023-05-15T09:50:26.405Z,37.60
2023-05-15T09:53:00.498Z,37.80
2023-05-15T09:55:33.240Z,38.04
2023-05-15T09:58:11.407Z,37.62
2023-05-15T10:00:47.879Z,38.28
2023-05-15T10:03:22.648Z,38.02
2023-05-15T10:06:01.029Z,37.88
2023-05-15T10:08:31.510Z,37.95
2023-05-15T10:11:03.102Z,38.71
2023-05-15T10:13:36.638Z,38.30
2023-05-15T10:16:07.897Z,38.50
2023-05-15T10:18:41.151Z,37.99
2023-05-15T10:21:12.605Z,38.07
2023-05-15T10:23:44.727Z,38.60
2023-05-15T10:26:28.692Z,38.86
2023-05-15T10:28:59.545Z,37.81
2023-05-15T10:31:32.470Z,36.40
2023-05-15T10:34:04.346Z,36.48
2023-05-15T10:36:36.258Z,36.81
2023-05-15T10:39:08.622Z,37.17
2023-05-15T10:41:38.893Z,37.20
2023-05-15T10:44:10.120Z,36.42
2023-05-15T10:46:40.743Z,36.94
2023-05-15T10:49:11.150Z,36.30
2023-05-15T10:51:42.254Z,36.28
2023-05-15T10:54:12.666Z,37.07
2023-05-15T10:56:44.710Z,37.06
2023-05-15T10:59:15.135Z,37.13
2023-05-15T11:01:45.605Z,36.65
2023-05-15T11:04:21.049Z,36.46
2023-05-15T11:06:52.660Z,36.83
2023-05-15T11:09:28.954Z,36.58
2023-05-15T11:12:01.830Z,35.64
2023-05-15T11:14:33.867Z,35.76
2023-05-15T11:17:09.481Z,36.04
2023-05-15T11:19:52.343Z,36.14
2023-05-15T11:22:23.811Z,36.55
2023-05-15T11:25:01.331Z,36.42
2023-05-15T11:27:43.434Z,36.46
2023-05-15T11:30:23.460Z,36.70
2023-05-15T11:33:03.152Z,36.21
2023-05-15T11:35:55.484Z,36.78
2023-05-15T11:38:26.959Z,36.46
2023-05-15T11:41:04.781Z,36.77
2023-05-15T11:43:38.363Z,36.73
2023-05-15T11:46:14.371Z,36.90
2023-05-15T11:48:45.738Z,37.37
2023-05-15T11:51:29.649Z,37.31
2023-05-15T11:54:02.176Z,37.17
2023-05-15T11:56:31.971Z,36.39
2023-05-15T11:59:03.866Z,36.20
2023-05-15T12:01:45.565Z,36.41
2023-05-15T12:04:17.231Z,37.21
2023-05-15T12:06:50.911Z,36.31
2023-05-15T12:09:24.029Z,36.48
2023-05-15T12:11:55.972Z,36.88
2023-05-15T12:14:30.599Z,37.51
2023-05-15T12:17:07.553Z,36.80
2023-05-15T12:19:39.954Z,36.30
2023-05-15T12:22:10.227Z,36.23
2023-05-15T12:24:41.395Z,36.88
2023-05-15T12:27:12.397Z,37.22
2023-05-15T12:29:43.712Z,37.56
2023-05-15T12:32:14.568Z,37.41
2023-05-15T12:34:45.207Z,37.60
2023-05-15T12:37:16.148Z,37.38
2023-05-15T12:40:11.784Z,37.49
2023-05-15T12:42:43.656Z,37.36
2023-05-15T12:45:22.706Z,37.46
2023-05-15T12:47:53.592Z,38.02
2023-05-15T12:50:25.124Z,37.82
2023-05-15T12:53:05.440Z,37.77
2023-05-15T12:55:38.216Z,37.53
2023-05-15T12:58:10.694Z,37.54
2023-05-15T13:00:47.542Z,37.65
2023-05-15T13:03:18.120Z,37.56
2023-05-15T13:05:48.858Z,38.05
2023-05-15T13:08:20.493Z,37.57
2023-05-15T13:11:01.764Z,37.50
2023-05-15T13:13:52.206Z,37.39
2023-05-15T13:16:28.645Z,37.50
2023-05-15T13:19:02.691Z,37.59
2023-05-15T13:21:33.340Z,37.65
2023-05-15T13:24:03.820Z,37.07
2023-05-15T13:26:34.294Z,37.14
2023-05-15T13:29:04.990Z,37.46
2023-05-15T13:31:35.752Z,37.58
2023-05-15T13:34:06.621Z,37.57
2023-05-15T13:36:37.112Z,37.21
2023-05-15T13:39:08.051Z,37.37
2023-05-15T13:41:39.349Z,37.38
2023-05-15T13:44:11.121Z,37.11
2023-05-15T13:46:41.552Z,37.48
2023-05-15T13:49:12.818Z,37.55
2023-05-15T13:51:43.369Z,36.82
2023-05-15T13:54:13.789Z,37.62
2023-05-15T13:56:44.194Z,37.45
2023-05-15T13:59:14.599Z,37.16
2023-05-15T14:01:45.159Z,37.31
2023-05-15T14:04:15.657Z,36.86
2023-05-15T14:06:46.475Z,36.66
2023-05-15T14:09:16.910Z,37.32
2023-05-15T14:11:47.341Z,37.70
2023-05-15T14:14:17.695Z,36.91
2023-05-15T14:16:48.241Z,36.64
2023-05-15T14:19:18.774Z,37.46
2023-05-15T14:21:49.297Z,36.70
2023-05-15T14:24:19.702Z,37.12
2023-05-15T14:26:50.284Z,37.30
2023-05-15T14:29:20.687Z,37.18
2023-05-15T14:31:51.093Z,37.41
2023-05-15T14:34:24.044Z,37.52
2023-05-15T14:36:54.532Z,37.22
2023-05-15T14:39:24.903Z,37.36
2023-05-15T14:41:55.333Z,37.74
2023-05-15T14:44:25.685Z,36.89
2023-05-15T14:47:10.415Z,37.05
2023-05-15T14:49:41.566Z,37.06
2023-05-15T14:52:13.827Z,37.21
2023-05-15T14:54:44.670Z,37.30
2023-05-15T14:57:21.796Z,37.51
2023-05-15T14:59:52.180Z,37.05
2023-05-15T15:02:22.551Z,37.05
2023-05-15T15:04:52.987Z,37.40
2023-05-15T15:07:23.366Z,37.38
2023-05-15T15:09:53.741Z,37.25
2023-05-15T15:12:23.990Z,37.01
2023-05-15T15:14:54.413Z,37.07
2023-05-15T15:17:24.816Z,37.47
2023-05-15T15:19:55.402Z,37.36
2023-05-15T15:22:25.789Z,37.97
2023-05-15T15:24:56.137Z,37.34
2023-05-15T15:27:26.514Z,37.07
2023-05-15T15:29:56.972Z,36.91
2023-05-15T15:32:27.590Z,36.62
2023-05-15T15:34:59.504Z,36.78
2023-05-15T15:37:37.315Z,37.08
2023-05-15T15:40:09.941Z,36.62
2023-05-15T15:42:40.649Z,37.34
2023-05-15T15:45:11.388Z,37.10
2023-05-15T15:47:41.886Z,37.40
2023-05-15T15:50:12.555Z,37.20
2023-05-15T15:52:42.996Z,37.16
2023-05-15T15:55:13.334Z,37.41
2023-05-15T15:57:43.855Z,37.13
2023-05-15T16:00:15.079Z,37.43
2023-05-15T16:02:45.657Z,37.32
2023-05-15T16:05:16.411Z,37.27
2023-05-15T16:07:47.180Z,37.41
2023-05-15T16:10:17.710Z,37.18
2023-05-15T16:12:48.279Z,36.85
2023-05-15T16:15:23.185Z,37.44
2023-05-15T16:17:55.404Z,37.44
2023-05-15T16:20:26.368Z,37.31
2023-05-15T16:22:56.982Z,37.17
2023-05-15T16:25:27.346Z,37.58
2023-05-15T16:27:57.602Z,37.58
2023-05-15T16:30:40.145Z,37.52
2023-05-15T16:33:19.120Z,37.20
2023-05-15T16:35:49.925Z,37.23
2023-05-15T16:38:20.838Z,37.17
2023-05-15T16:40:51.871Z,37.44
2023-05-15T16:43:23.337Z,37.07
2023-05-15T16:45:53.760Z,37.33
2023-05-15T16:48:24.447Z,37.22
2023-05-15T16:50:55.242Z,37.28
2023-05-15T16:53:25.849Z,37.22
2023-05-15T16:55:56.372Z,37.04
2023-05-15T16:58:26.976Z,37.12
2023-05-15T17:00:57.421Z,37.57
2023-05-15T17:03:28.012Z,37.19
2023-05-15T17:05:58.394Z,36.83
2023-05-15T17:08:28.777Z,37.30
2023-05-15T17:10:59.156Z,36.97
2023-05-15T17:13:29.633Z,37.26
2023-05-15T17:16:00.016Z,37.19
2023-05-15T17:18:30.409Z,37.11
2023-05-15T17:21:00.939Z,36.75
2023-05-15T17:23:31.313Z,36.94
2023-05-15T17:26:01.876Z,37.00
2023-05-15T17:28:32.369Z,37.34
2023-05-15T17:31:03.484Z,37.22
2023-05-15T17:33:34.072Z,36.94
2023-05-15T17:36:04.295Z,36.93
2023-05-15T17:38:35.184Z,36.82
2023-05-15T17:41:05.570Z,37.06
2023-05-15T17:43:36.129Z,36.99
2023-05-15T17:46:07.159Z,36.92
2023-05-15T17:48:37.852Z,37.42
2023-05-15T17:51:08.118Z,36.90
2023-05-15T17:53:38.535Z,36.74
2023-05-15T17:56:09.337Z,37.03
2023-05-15T17:58:39.766Z,37.07
2023-05-15T18:01:10.153Z,36.81
2023-05-15T18:03:41.803Z,36.87
2023-05-15T18:06:14.962Z,36.87
2023-05-15T18:08:49.001Z,36.76
2023-05-15T18:11:22.323Z,37.13
2023-05-15T18:13:53.380Z,37.04
2023-05-15T18:16:24.220Z,36.92
2023-05-15T18:18:54.748Z,37.17
2023-05-15T18:21:25.216Z,36.97
2023-05-15T18:23:55.601Z,37.37
2023-05-15T18:26:27.201Z,37.25
2023-05-15T18:28:58.406Z,37.09
2023-05-15T18:31:29.064Z,37.33
2023-05-15T18:33:59.515Z,37.21
2023-05-15T18:36:30.242Z,37.26
2023-05-15T18:39:00.619Z,37.39
2023-05-15T18:41:48.907Z,37.05
2023-05-15T18:44:19.370Z,37.22
2023-05-15T18:46:49.750Z,36.92
2023-05-15T18:49:20.198Z,37.07
2023-05-15T18:51:50.599Z,37.38
2023-05-15T18:54:20.963Z,37.04
2023-05-15T18:56:51.298Z,37.31
2023-05-15T18:59:22.312Z,37.03
2023-05-15T19:01:54.799Z,37.38
2023-05-15T19:04:25.284Z,37.22
2023-05-15T19:06:55.829Z,36.90
2023-05-15T19:09:26.338Z,37.56
2023-05-15T19:11:57.091Z,37.03
2023-05-15T19:14:27.861Z,36.79
2023-05-15T19:16:58.327Z,37.43
2023-05-15T19:19:29.006Z,36.77
2023-05-15T19:22:18.856Z,36.97
2023-05-15T19:24:49.616Z,37.54
2023-05-15T19:27:20.012Z,37.45
2023-05-15T19:29:51.270Z,36.96
2023-05-15T19:32:21.786Z,37.06
2023-05-15T19:34:52.308Z,37.26
2023-05-15T19:37:22.968Z,37.28
2023-05-15T19:39:53.676Z,37.19
2023-05-15T19:42:24.068Z,37.30
2023-05-15T19:44:54.332Z,37.17
2023-05-15T19:47:24.863Z,37.18
2023-05-15T19:49:55.253Z,37.23
2023-05-15T19:52:25.971Z,37.21
2023-05-15T19:54:56.181Z,37.57
2023-05-15T19:57:26.528Z,37.60
2023-05-15T19:59:56.894Z,37.08
2023-05-15T20:02:27.456Z,37.13
2023-05-15T20:04:57.828Z,36.95
2023-05-15T20:07:28.200Z,37.06
2023-05-15T20:09:58.658Z,37.00
2023-05-15T20:12:29.162Z,37.18
2023-05-15T20:14:59.541Z,36.92
2023-05-15T20:17:33.063Z,37.29
2023-05-15T20:20:03.738Z,37.41
2023-05-15T20:22:34.104Z,36.88
2023-05-15T20:25:04.930Z,37.02
2023-05-15T20:27:35.758Z,37.08
2023-05-15T20:30:07.114Z,37.06
2023-05-15T20:32:38.510Z,37.06
2023-05-15T20:35:10.142Z,37.92
2023-05-15T20:37:44.374Z,36.97
2023-05-15T20:40:14.917Z,36.97
2023-05-15T20:42:45.321Z,37.06
2023-05-15T20:45:16.129Z,36.81
2023-05-15T20:47:46.716Z,37.29
2023-05-15T20:50:17.823Z,37.28
2023-05-15T20:52:48.721Z,37.26
2023-05-15T20:55:21.710Z,37.03
2023-05-15T20:57:52.555Z,37.18
2023-05-15T21:00:23.539Z,36.90
2023-05-15T21:02:54.301Z,36.97
2023-05-15T21:05:24.885Z,37.18
2023-05-15T21:07:55.433Z,36.73
2023-05-15T21:10:26.277Z,37.76
2023-05-15T21:12:59.291Z,36.81
2023-05-15T21:15:29.852Z,36.73
2023-05-15T21:18:00.242Z,37.43
2023-05-15T21:20:31.946Z,37.31
2023-05-15T21:23:03.956Z,36.93
2023-05-15T21:25:35.630Z,37.59
2023-05-15T21:28:06.823Z,37.04
2023-05-15T21:30:37.350Z,36.76
2023-05-15T21:33:07.904Z,37.42
2023-05-15T21:35:38.615Z,37.26
2023-05-15T21:38:09.046Z,37.32
2023-05-15T21:40:39.436Z,37.52
2023-05-15T21:43:11.135Z,37.56
2023-05-15T21:45:41.538Z,37.07
2023-05-15T21:48:12.172Z,37.01
2023-05-15T21:50:42.730Z,37.03
2023-05-15T21:53:13.122Z,36.93
2023-05-15T21:55:43.550Z,37.18
2023-05-15T21:58:13.929Z,36.92
2023-05-15T22:00:44.259Z,37.09
2023-05-15T22:03:14.685Z,36.70
2023-05-15T22:05:45.354Z,36.88
2023-05-15T22:08:15.909Z,36.74
2023-05-15T22:10:46.531Z,37.10
2023-05-15T22:13:17.038Z,37.15
2023-05-15T22:15:47.438Z,36.91
2023-05-15T22:18:18.126Z,37.16
2023-05-15T22:21:06.892Z,37.36
2023-05-15T22:23:37.794Z,37.63
2023-05-15T22:26:08.196Z,37.00
2023-05-15T22:28:38.649Z,37.00
2023-05-15T22:31:09.083Z,37.32
2023-05-15T22:33:39.562Z,37.44
2023-05-15T22:36:10.081Z,37.21
2023-05-15T22:38:40.716Z,37.30
2023-05-15T22:41:11.199Z,37.42
2023-05-15T22:43:41.899Z,37.02
2023-05-15T22:46:12.506Z,37.89
2023-05-15T22:48:43.374Z,37.09
2023-05-15T22:51:13.710Z,37.23
2023-05-15T22:53:44.614Z,37.56
2023-05-15T22:56:15.031Z,38.17
2023-05-15T22:58:45.540Z,37.71
2023-05-15T23:01:16.382Z,38.20
2023-05-15T23:03:47.715Z,37.85
2023-05-15T23:06:21.348Z,37.94
2023-05-15T23:08:52.765Z,37.95
2023-05-15T23:11:23.489Z,37.84
2023-05-15T23:13:54.330Z,37.43
2023-05-15T23:16:32.170Z,37.76
2023-05-15T23:19:02.879Z,38.09
2023-05-15T23:21:33.369Z,37.87
2023-05-15T23:24:03.761Z,38.11
2023-05-15T23:26:34.180Z,37.55
2023-05-15T23:29:04.571Z,38.33
2023-05-15T23:31:35.156Z,37.79
2023-05-15T23:34:05.728Z,37.89
2023-05-15T23:36:36.020Z,38.03
2023-05-15T23:39:08.319Z,37.84
2023-05-15T23:41:38.743Z,37.76
2023-05-15T23:44:09.886Z,38.36
2023-05-15T23:46:40.527Z,37.76
2023-05-15T23:49:11.737Z,38.21
2023-05-15T23:51:42.498Z,37.86
2023-05-15T23:54:13.239Z,36.95
2023-05-15T23:56:43.714Z,37.27
2023-05-15T23:59:15.288Z,36.90
